Time;durP1;ratioP1;P1;durP2;ratioP2;P2;SDS_P1;SDS_P2;PMS_P1;PMS_P2;Temp;Humidity;BMP_temperature;BMP_pressure;BME280_temperature;BME280_humidity;BME280_pressure;Samples;Min_cycle;Max_cycle;Signal;HPM_P1;HPM_P2
2022/03/31 00:01:28;;;;;;;0.10;0.10;;;5.40;99.90;;;;;;4982693;28;20080;-80
2022/03/31 00:03:54;;;;;;;4.80;0.82;;;5.40;99.90;;;;;;4982919;28;20250;-79
2022/03/31 00:06:19;;;;;;;0.45;0.40;;;5.40;99.90;;;;;;4982577;28;20061;-80
2022/03/31 00:08:45;;;;;;;3.95;1.17;;;5.40;99.90;;;;;;4982052;28;20042;-79
2022/03/31 00:11:12;;;;;;;6.10;0.95;;;5.40;99.90;;;;;;4981618;28;20413;-80
2022/03/31 00:13:38;;;;;;;0.20;0.20;;;5.40;99.90;;;;;;4982435;28;20053;-79
2022/03/31 00:16:04;;;;;;;0.70;0.57;;;5.40;99.90;;;;;;4982796;28;20054;-79
2022/03/31 00:18:31;;;;;;;0.45;0.40;;;5.40;99.90;;;;;;4982353;28;20051;-79
2022/03/31 00:24:18;;;;;;;2.08;0.68;;;5.40;99.90;;;;;;4981498;28;20078;-78
2022/03/31 00:26:44;;;;;;;0.55;0.55;;;5.40;99.90;;;;;;4982655;28;20678;-81
2022/03/31 00:29:09;;;;;;;7.78;0.43;;;5.40;99.90;;;;;;4982094;28;20038;-80
2022/03/31 00:31:35;;;;;;;0.20;0.20;;;5.40;99.90;;;;;;4982998;28;20081;-79
2022/03/31 00:34:01;;;;;;;0.32;0.32;;;5.40;99.90;;;;;;4982515;28;20468;-79
2022/03/31 00:36:27;;;;;;;0.35;0.35;;;5.40;99.90;;;;;;4981868;28;20046;-80
2022/03/31 00:41:39;;;;;;;0.20;0.20;;;5.40;99.90;;;;;;4982099;28;20070;-79
2022/03/31 00:44:06;;;;;;;0.32;0.32;;;5.40;99.90;;;;;;4982630;28;20061;-79
2022/03/31 00:46:32;;;;;;;0.47;0.47;;;5.40;99.90;;;;;;4981929;28;20054;-79
2022/03/31 00:48:58;;;;;;;0.40;0.40;;;5.40;99.90;;;;;;4982073;28;20412;-79
2022/03/31 00:51:24;;;;;;;5.13;0.95;;;5.40;99.90;;;;;;4981927;28;20100;-79
2022/03/31 00:53:51;;;;;;;0.20;0.20;;;5.40;99.90;;;;;;4981052;28;20050;-80
2022/03/31 00:56:18;;;;;;;0.28;0.28;;;5.30;99.90;;;;;;4981317;28;20129;-80
2022/03/31 00:58:45;;;;;;;0.47;0.35;;;5.30;99.90;;;;;;4982162;28;20054;-79
2022/03/31 01:01:14;;;;;;;0.40;0.40;;;5.30;99.90;;;;;;4981857;28;20046;-80
2022/03/31 01:03:40;;;;;;;0.35;0.35;;;5.30;99.90;;;;;;4981983;28;20082;-80
2022/03/31 01:06:05;;;;;;;0.20;0.20;;;5.30;99.90;;;;;;4982547;28;20070;-79
2022/03/31 01:08:32;;;;;;;0.20;0.20;;;5.30;99.90;;;;;;4981581;28;20069;-79
2022/03/31 01:10:58;;;;;;;0.80;0.60;;;5.30;99.90;;;;;;4982918;28;20089;-79
2022/03/31 01:13:24;;;;;;;0.32;0.32;;;5.30;99.90;;;;;;4997714;23;20050;-80
2022/03/31 01:15:50;;;;;;;0.57;0.50;;;5.30;99.90;;;;;;5005080;28;20077;-80
2022/03/31 01:18:15;;;;;;;0.57;0.40;;;5.30;99.90;;;;;;5005441;28;20076;-79
2022/03/31 01:20:42;;;;;;;0.20;0.20;;;5.30;99.90;;;;;;5003930;28;20128;-80
2022/03/31 01:23:11;;;;;;;2.53;0.95;;;5.30;99.90;;;;;;5005843;28;20045;-80
2022/03/31 01:25:36;;;;;;;0.98;0.65;;;5.20;99.90;;;;;;5005172;28;20488;-80
2022/03/31 01:28:03;;;;;;;4.90;0.75;;;5.20;99.90;;;;;;5004724;28;20054;-79
2022/03/31 01:30:28;;;;;;;0.30;0.30;;;5.20;99.90;;;;;;5004970;28;20156;-79
2022/03/31 01:32:54;;;;;;;0.55;0.55;;;5.20;99.90;;;;;;5004678;28;20121;-80
2022/03/31 01:35:20;;;;;;;0.65;0.40;;;5.20;99.90;;;;;;5004718;28;20041;-80
2022/03/31 01:37:47;;;;;;;13.55;0.90;;;5.20;99.90;;;;;;5005314;28;20037;-80
2022/03/31 01:40:13;;;;;;;0.13;0.13;;;5.20;99.90;;;;;;5003553;28;20049;-80
2022/03/31 01:42:40;;;;;;;0.50;0.50;;;5.20;99.90;;;;;;5005116;28;20042;-80
2022/03/31 01:45:08;;;;;;;0.30;0.28;;;5.20;99.90;;;;;;5005124;28;20049;-79
2022/03/31 01:47:34;;;;;;;0.43;0.43;;;5.20;99.90;;;;;;5004615;28;20038;-79
2022/03/31 01:50:01;;;;;;;0.20;0.20;;;5.30;99.90;;;;;;5004683;28;20041;-80
2022/03/31 01:52:28;;;;;;;0.30;0.30;;;5.30;99.90;;;;;;5004085;28;20038;-79
2022/03/31 01:54:54;;;;;;;0.40;0.40;;;5.30;99.90;;;;;;5003688;28;20053;-79
2022/03/31 01:57:19;;;;;;;0.03;0.03;;;5.30;99.90;;;;;;5004701;28;20038;-80
2022/03/31 01:59:45;;;;;;;0.30;0.30;;;5.30;99.90;;;;;;5002969;28;20046;-80
2022/03/31 02:02:13;;;;;;;0.57;0.57;;;5.30;99.90;;;;;;5004341;28;20121;-80
2022/03/31 02:04:40;;;;;;;0.40;0.40;;;5.30;99.90;;;;;;5004372;28;20054;-78
2022/03/31 02:07:07;;;;;;;1.65;0.90;;;5.30;99.90;;;;;;5004645;28;20061;-80
2022/03/31 02:09:33;;;;;;;0.20;0.20;;;5.30;99.90;;;;;;5003585;28;20049;-79
2022/03/31 02:11:59;;;;;;;0.15;0.15;;;5.40;99.90;;;;;;5003924;28;20041;-80
2022/03/31 02:14:25;;;;;;;0.68;0.30;;;5.40;99.90;;;;;;5004037;28;20137;-79
2022/03/31 02:16:51;;;;;;;1.45;0.90;;;5.40;99.90;;;;;;5003950;28;20671;-80
2022/03/31 02:19:18;;;;;;;0.47;0.47;;;5.40;99.90;;;;;;5003764;28;20034;-79
2022/03/31 02:21:44;;;;;;;0.30;0.30;;;5.30;99.90;;;;;;5003683;28;20551;-80
2022/03/31 02:24:11;;;;;;;0.73;0.73;;;5.30;99.90;;;;;;5002110;28;20050;-80
2022/03/31 02:26:37;;;;;;;1.27;0.30;;;5.30;99.90;;;;;;5004295;28;20049;-79
2022/03/31 02:29:04;;;;;;;0.50;0.50;;;5.30;99.90;;;;;;5003891;28;20046;-79
2022/03/31 02:31:30;;;;;;;2.33;0.80;;;5.30;99.90;;;;;;5002386;28;20555;-79
2022/03/31 02:33:56;;;;;;;1.03;0.93;;;5.30;99.90;;;;;;5004308;28;20038;-79
2022/03/31 02:36:23;;;;;;;0.57;0.57;;;5.30;99.90;;;;;;5003397;28;20121;-80
2022/03/31 02:38:48;;;;;;;0.22;0.20;;;5.30;99.90;;;;;;5003723;28;20049;-79
2022/03/31 02:41:14;;;;;;;3.13;0.77;;;5.20;99.90;;;;;;5002691;28;20396;-80
2022/03/31 02:43:39;;;;;;;0.90;0.75;;;5.20;99.90;;;;;;5003472;28;20084;-80
2022/03/31 02:46:05;;;;;;;0.63;0.55;;;5.20;99.90;;;;;;5004129;28;20484;-79
2022/03/31 02:48:31;;;;;;;1.30;1.10;;;5.20;99.90;;;;;;5001824;28;20030;-79
2022/03/31 02:50:56;;;;;;;0.53;0.53;;;5.20;99.90;;;;;;5004163;28;20084;-79
2022/03/31 02:56:06;;;;;;;2.00;1.03;;;5.20;99.90;;;;;;4988214;28;20053;-79
2022/03/31 02:58:31;;;;;;;1.58;1.48;;;5.20;99.90;;;;;;5003017;28;20042;-79
2022/03/31 03:00:57;;;;;;;0.65;0.65;;;5.10;99.90;;;;;;5003558;28;20042;-79
2022/03/31 03:03:23;;;;;;;1.13;1.10;;;5.20;99.90;;;;;;5003166;28;20452;-79
2022/03/31 03:05:48;;;;;;;2.92;1.48;;;5.20;99.90;;;;;;5001604;28;20043;-79
2022/03/31 03:08:15;;;;;;;0.57;0.57;;;5.10;99.90;;;;;;5002214;28;20049;-80
2022/03/31 03:10:41;;;;;;;0.73;0.73;;;5.10;99.90;;;;;;5002020;28;20084;-80
2022/03/31 03:13:08;;;;;;;1.10;1.05;;;5.10;99.90;;;;;;5003284;28;20037;-79
2022/03/31 03:15:34;;;;;;;0.50;0.50;;;5.00;99.90;;;;;;5003829;28;20056;-79
2022/03/31 03:18:00;;;;;;;1.33;0.82;;;5.10;99.90;;;;;;5002577;28;20061;-79
2022/03/31 03:20:25;;;;;;;0.83;0.83;;;5.00;99.90;;;;;;5003155;28;20045;-79
2022/03/31 03:22:52;;;;;;;0.68;0.68;;;5.00;99.90;;;;;;5017278;28;20073;-80
2022/03/31 03:25:20;;;;;;;0.53;0.53;;;4.90;99.90;;;;;;5001869;28;20033;-79
2022/03/31 03:27:47;;;;;;;0.80;0.80;;;4.90;99.90;;;;;;5003452;28;20049;-80
2022/03/31 03:30:13;;;;;;;1.30;1.20;;;4.90;99.90;;;;;;5002223;28;20078;-79
2022/03/31 03:32:40;;;;;;;1.97;1.57;;;4.80;99.90;;;;;;5001888;28;20038;-79
2022/03/31 03:35:08;;;;;;;1.47;1.37;;;4.80;99.90;;;;;;5003009;28;20149;-79
2022/03/31 03:37:34;;;;;;;0.40;0.40;;;4.80;99.90;;;;;;5002406;28;20046;-79
2022/03/31 03:40:02;;;;;;;1.00;0.93;;;4.80;99.90;;;;;;5002270;28;20057;-79
2022/03/31 03:42:28;;;;;;;0.87;0.83;;;4.80;99.90;;;;;;5002365;28;20622;-79
2022/03/31 03:44:54;;;;;;;1.27;1.20;;;4.80;99.90;;;;;;5001107;28;20173;-79
2022/03/31 03:47:21;;;;;;;1.27;1.07;;;4.80;99.90;;;;;;5002431;28;20109;-80
2022/03/31 03:49:47;;;;;;;2.70;1.30;;;4.80;99.90;;;;;;5001917;28;20384;-80
2022/03/31 03:52:12;;;;;;;2.20;2.00;;;4.80;99.90;;;;;;5002695;28;20173;-79
2022/03/31 03:54:38;;;;;;;1.87;1.37;;;4.80;99.90;;;;;;5001279;28;20132;-76
2022/03/31 03:57:04;;;;;;;1.80;1.67;;;4.80;99.90;;;;;;4985343;28;20053;-79
2022/03/31 03:59:30;;;;;;;1.47;1.37;;;4.80;99.90;;;;;;5002530;28;20077;-79
2022/03/31 04:01:56;;;;;;;1.33;1.20;;;4.80;99.90;;;;;;5000910;28;20752;-79
2022/03/31 04:04:21;;;;;;;0.60;0.60;;;4.70;99.90;;;;;;5002300;28;20108;-80
2022/03/31 04:06:47;;;;;;;1.17;0.90;;;4.70;99.90;;;;;;5001250;28;20042;-79
2022/03/31 04:09:12;;;;;;;0.50;0.50;;;4.70;99.90;;;;;;5001384;28;20436;-80
2022/03/31 04:11:38;;;;;;;0.70;0.70;;;4.70;99.90;;;;;;5001193;28;20644;-80
2022/03/31 04:14:03;;;;;;;0.50;0.50;;;4.70;99.90;;;;;;5001093;28;20050;-79
2022/03/31 04:16:29;;;;;;;0.57;0.57;;;4.60;99.90;;;;;;5001808;28;20046;-79
2022/03/31 04:18:55;;;;;;;0.37;0.37;;;4.60;99.90;;;;;;5002116;28;20049;-79
2022/03/31 04:21:20;;;;;;;0.80;0.80;;;4.50;99.90;;;;;;5002195;28;20045;-80
2022/03/31 04:23:46;;;;;;;0.50;0.50;;;4.50;99.90;;;;;;5000459;28;20516;-79
2022/03/31 04:26:11;;;;;;;0.60;0.60;;;4.40;99.90;;;;;;5002173;28;20480;-79
2022/03/31 04:28:37;;;;;;;1.23;1.13;;;4.40;99.90;;;;;;5002383;28;20129;-79
2022/03/31 04:31:02;;;;;;;1.80;1.03;;;4.30;99.90;;;;;;5000640;28;20085;-79
2022/03/31 04:33:28;;;;;;;0.70;0.70;;;4.20;99.90;;;;;;5016956;28;20222;-79
2022/03/31 04:35:55;;;;;;;1.13;1.10;;;4.20;99.90;;;;;;5001804;28;20069;-79
2022/03/31 04:38:20;;;;;;;2.30;0.63;;;4.20;99.90;;;;;;5001849;28;20121;-80
2022/03/31 04:40:46;;;;;;;2.97;1.10;;;4.00;99.90;;;;;;5001263;28;20124;-79
2022/03/31 04:43:11;;;;;;;0.40;0.40;;;4.00;99.90;;;;;;5001843;28;20480;-79
2022/03/31 04:45:37;;;;;;;0.60;0.60;;;3.90;99.90;;;;;;5003205;28;20038;-78
2022/03/31 04:48:03;;;;;;;1.40;0.83;;;3.90;99.90;;;;;;5006474;28;20093;-79
2022/03/31 04:50:28;;;;;;;0.73;0.73;;;3.80;99.90;;;;;;5005291;28;20057;-79
2022/03/31 04:52:54;;;;;;;0.87;0.87;;;3.80;99.90;;;;;;5005578;28;20488;-79
2022/03/31 04:55:19;;;;;;;1.10;1.00;;;3.70;99.90;;;;;;5003563;28;20044;-79
2022/03/31 04:57:46;;;;;;;0.80;0.73;;;3.70;99.90;;;;;;5004073;28;20038;-79
2022/03/31 05:00:12;;;;;;;0.90;0.90;;;3.70;99.90;;;;;;5004054;28;20135;-79
2022/03/31 05:02:38;;;;;;;1.70;0.97;;;3.70;99.90;;;;;;5005172;28;20118;-78
2022/03/31 05:05:04;;;;;;;0.70;0.70;;;3.70;99.90;;;;;;5005093;28;20120;-79
2022/03/31 05:07:30;;;;;;;1.03;0.93;;;3.70;99.90;;;;;;5004675;28;20034;-78
2022/03/31 05:09:55;;;;;;;1.40;1.27;;;3.80;99.90;;;;;;5004691;28;20054;-78
2022/03/31 05:12:21;;;;;;;0.50;0.50;;;3.80;99.90;;;;;;5005101;28;20483;-78
2022/03/31 05:14:47;;;;;;;1.33;0.93;;;3.80;99.90;;;;;;5005374;28;20054;-78
2022/03/31 05:17:12;;;;;;;0.90;0.90;;;3.80;99.90;;;;;;5003820;28;20096;-78
2022/03/31 05:19:38;;;;;;;0.20;0.20;;;3.80;99.90;;;;;;5005571;28;20048;-78
2022/03/31 05:22:04;;;;;;;0.43;0.43;;;3.80;99.90;;;;;;5004808;28;20041;-79
2022/03/31 05:24:30;;;;;;;0.60;0.60;;;3.80;99.90;;;;;;5002882;28;20527;-79
2022/03/31 05:26:55;;;;;;;0.27;0.27;;;3.80;99.90;;;;;;5003291;28;20064;-79
2022/03/31 05:29:22;;;;;;;0.47;0.43;;;3.80;99.90;;;;;;5003685;28;20724;-79
2022/03/31 05:31:48;;;;;;;0.87;0.87;;;3.80;99.90;;;;;;5004880;28;20121;-78
2022/03/31 05:34:14;;;;;;;0.77;0.77;;;3.80;99.90;;;;;;4986665;28;20045;-78
2022/03/31 05:36:40;;;;;;;1.30;0.97;;;3.80;99.90;;;;;;5004607;28;20041;-79
2022/03/31 05:39:06;;;;;;;0.63;0.63;;;3.80;99.90;;;;;;5002550;28;20324;-79
2022/03/31 05:41:32;;;;;;;0.83;0.83;;;3.80;99.90;;;;;;5003297;28;20042;-80
2022/03/31 05:43:58;;;;;;;0.77;0.57;;;3.90;99.90;;;;;;5004140;28;20041;-77
2022/03/31 05:46:25;;;;;;;1.13;0.57;;;4.00;99.90;;;;;;5003707;28;20400;-77
2022/03/31 05:48:50;;;;;;;0.60;0.60;;;3.90;99.90;;;;;;5002384;28;20073;-78
2022/03/31 05:51:16;;;;;;;23.47;1.30;;;4.00;99.90;;;;;;5003514;28;20538;-78
2022/03/31 05:53:42;;;;;;;0.20;0.20;;;4.00;99.90;;;;;;5002865;28;20092;-77
2022/03/31 05:56:07;;;;;;;1.87;0.87;;;3.90;99.90;;;;;;5002904;28;20057;-78
2022/03/31 05:58:34;;;;;;;0.73;0.73;;;4.00;99.90;;;;;;4995560;28;20077;-94
2022/03/31 06:01:00;;;;;;;2.30;1.03;;;3.90;99.90;;;;;;5001788;28;20077;-87
2022/03/31 06:03:26;;;;;;;4.67;1.80;;;3.90;99.90;;;;;;5003893;28;20038;-87
2022/03/31 06:05:52;;;;;;;2.37;0.87;;;3.90;99.90;;;;;;5004670;28;20420;-77
2022/03/31 06:08:18;;;;;;;0.60;0.60;;;3.90;99.90;;;;;;5002539;28;20029;-77
2022/03/31 06:10:45;;;;;;;0.77;0.77;;;3.90;99.90;;;;;;5002688;28;20071;-78
2022/03/31 06:13:11;;;;;;;0.73;0.73;;;3.90;99.90;;;;;;5003460;28;20135;-77
2022/03/31 06:15:37;;;;;;;1.13;1.13;;;3.90;99.90;;;;;;5003667;28;20587;-77
2022/03/31 06:18:03;;;;;;;2.87;1.07;;;3.90;99.90;;;;;;5001799;28;20425;-77
2022/03/31 06:20:30;;;;;;;0.83;0.83;;;3.90;99.90;;;;;;5001792;28;20038;-77
2022/03/31 06:22:57;;;;;;;1.23;1.23;;;4.00;99.90;;;;;;4999373;28;20289;-77
2022/03/31 06:25:23;;;;;;;0.57;0.57;;;4.00;99.90;;;;;;5001940;28;20523;-77
2022/03/31 06:27:49;;;;;;;1.03;1.03;;;4.00;99.90;;;;;;5002885;28;20042;-77
2022/03/31 06:30:16;;;;;;;3.93;1.27;;;4.00;99.90;;;;;;5002836;28;20531;-77
2022/03/31 06:32:42;;;;;;;1.60;0.67;;;4.10;99.90;;;;;;5003068;28;20080;-77
2022/03/31 06:35:11;;;;;;;1.20;1.10;;;4.10;99.90;;;;;;5001837;28;20046;-76
2022/03/31 06:37:39;;;;;;;3.50;1.53;;;4.10;99.90;;;;;;5002373;28;20203;-77
2022/03/31 06:40:05;;;;;;;0.73;0.73;;;4.10;99.90;;;;;;5001159;28;20050;-77
2022/03/31 06:42:30;;;;;;;0.53;0.53;;;4.20;99.90;;;;;;5000481;28;20087;-76
2022/03/31 06:44:57;;;;;;;0.83;0.70;;;4.20;99.90;;;;;;5001997;28;20589;-77
2022/03/31 06:47:22;;;;;;;1.13;0.60;;;4.20;99.90;;;;;;5000329;28;20053;-77
2022/03/31 06:49:48;;;;;;;1.90;1.57;;;4.20;99.90;;;;;;5001617;28;20041;-77
2022/03/31 06:52:14;;;;;;;0.73;0.73;;;4.20;99.90;;;;;;5000421;28;20041;-77
2022/03/31 06:54:39;;;;;;;0.87;0.87;;;4.30;99.90;;;;;;5000105;28;20242;-77
2022/03/31 06:57:05;;;;;;;0.80;0.80;;;4.20;99.90;;;;;;5002271;28;20042;-77
2022/03/31 06:59:31;;;;;;;0.23;0.23;;;4.20;99.90;;;;;;5002035;28;20121;-77
2022/03/31 07:01:57;;;;;;;0.40;0.33;;;4.30;99.90;;;;;;5001886;28;20042;-77
2022/03/31 07:04:23;;;;;;;1.57;1.40;;;4.30;99.90;;;;;;5000102;28;20054;-77
2022/03/31 07:06:49;;;;;;;1.30;1.23;;;4.30;99.90;;;;;;5002122;28;20037;-77
2022/03/31 07:09:15;;;;;;;1.47;0.57;;;4.30;99.90;;;;;;5000079;28;20500;-77
2022/03/31 07:11:41;;;;;;;0.57;0.57;;;4.30;99.90;;;;;;4999118;28;20038;-77
2022/03/31 07:14:06;;;;;;;0.87;0.83;;;4.30;99.90;;;;;;5002227;28;20551;-77
2022/03/31 07:16:32;;;;;;;0.83;0.83;;;4.30;99.90;;;;;;5001089;28;20041;-77
2022/03/31 07:18:58;;;;;;;0.73;0.73;;;4.30;99.90;;;;;;5001409;28;20373;-77
2022/03/31 07:21:24;;;;;;;1.37;1.27;;;4.30;99.90;;;;;;5001744;28;20037;-77
2022/03/31 07:23:51;;;;;;;1.37;1.27;;;4.30;99.90;;;;;;4998955;28;20496;-77
2022/03/31 07:26:16;;;;;;;0.97;0.97;;;4.30;99.90;;;;;;4999640;28;20096;-77
2022/03/31 07:28:42;;;;;;;0.80;0.80;;;4.40;99.90;;;;;;5001540;28;20046;-77
2022/03/31 07:31:08;;;;;;;1.47;1.07;;;4.40;99.90;;;;;;5000127;28;20134;-77
2022/03/31 07:33:34;;;;;;;2.10;1.53;;;4.40;99.90;;;;;;5000228;28;20042;-77
2022/03/31 07:35:59;;;;;;;1.20;1.10;;;4.40;99.90;;;;;;4999918;28;20127;-77
2022/03/31 07:38:24;;;;;;;1.10;1.03;;;4.40;99.90;;;;;;4999615;28;20131;-77
2022/03/31 07:40:50;;;;;;;0.53;0.53;;;4.40;99.90;;;;;;4999995;28;20064;-77
2022/03/31 07:43:16;;;;;;;1.30;1.00;;;4.40;99.90;;;;;;5001154;28;20129;-77
2022/03/31 07:45:42;;;;;;;1.43;1.30;;;4.40;99.90;;;;;;4999236;28;20440;-77
2022/03/31 07:48:09;;;;;;;1.03;0.93;;;4.40;99.90;;;;;;4999610;28;20034;-77
2022/03/31 07:50:35;;;;;;;1.03;1.00;;;4.40;99.90;;;;;;5001547;28;20050;-77
2022/03/31 07:53:01;;;;;;;0.50;0.50;;;4.40;99.90;;;;;;5001118;28;20038;-78
2022/03/31 07:55:27;;;;;;;2.07;0.97;;;4.40;99.90;;;;;;5000052;28;20069;-77
2022/03/31 07:57:53;;;;;;;1.17;1.17;;;4.40;99.90;;;;;;4999302;28;20507;-77
2022/03/31 08:00:20;;;;;;;1.50;1.40;;;4.40;99.90;;;;;;4999149;28;20334;-77
2022/03/31 08:02:48;;;;;;;2.23;1.80;;;4.40;99.90;;;;;;5001097;28;20034;-78
2022/03/31 08:05:24;;;;;;;1.43;1.03;;;4.40;99.90;;;;;;5001004;28;20523;-78
2022/03/31 08:07:51;;;;;;;0.40;0.40;;;4.40;99.90;;;;;;5001370;28;20033;-77
2022/03/31 08:10:17;;;;;;;0.93;0.90;;;4.50;99.90;;;;;;4997726;28;20157;-78
2022/03/31 08:12:44;;;;;;;1.70;1.60;;;4.50;99.90;;;;;;5000431;28;20045;-77
2022/03/31 08:15:12;;;;;;;1.33;1.23;;;4.50;99.90;;;;;;4999639;28;20085;-77
2022/03/31 08:17:41;;;;;;;1.50;1.40;;;4.40;99.90;;;;;;4999627;28;20485;-77
2022/03/31 08:20:09;;;;;;;1.33;0.87;;;4.40;99.90;;;;;;5001604;28;20045;-77
2022/03/31 08:22:36;;;;;;;2.30;2.10;;;4.40;99.90;;;;;;4987407;28;20046;-77
2022/03/31 08:25:03;;;;;;;2.43;1.63;;;4.40;99.90;;;;;;5003677;28;20227;-77
2022/03/31 08:27:30;;;;;;;0.77;0.77;;;4.40;99.90;;;;;;5002076;28;20049;-77
2022/03/31 08:29:55;;;;;;;1.40;1.30;;;4.40;99.90;;;;;;5004774;28;20045;-78
2022/03/31 08:32:21;;;;;;;1.70;1.60;;;4.40;99.90;;;;;;5004309;28;20042;-78
2022/03/31 08:34:47;;;;;;;1.47;1.37;;;4.40;99.90;;;;;;5002601;28;20080;-77
2022/03/31 08:37:14;;;;;;;3.63;3.13;;;4.40;99.90;;;;;;5004372;28;20046;-76
2022/03/31 08:39:39;;;;;;;0.70;0.70;;;4.40;99.90;;;;;;5003083;28;20034;-75
2022/03/31 08:42:06;;;;;;;1.07;1.07;;;4.40;99.90;;;;;;5004050;28;20092;-76
2022/03/31 08:44:34;;;;;;;2.80;1.73;;;4.40;99.90;;;;;;5003952;28;20073;-75
2022/03/31 08:46:59;;;;;;;2.07;1.50;;;4.40;99.90;;;;;;5004232;28;20523;-76
2022/03/31 08:49:25;;;;;;;2.80;1.80;;;4.40;99.90;;;;;;5004105;28;20046;-76
2022/03/31 08:51:51;;;;;;;1.50;1.40;;;4.40;99.90;;;;;;5004037;28;20121;-75
2022/03/31 08:54:16;;;;;;;1.47;1.37;;;4.40;99.90;;;;;;5003001;28;20048;-75
2022/03/31 08:56:42;;;;;;;3.43;2.23;;;4.40;99.90;;;;;;5003831;28;20499;-76
2022/03/31 08:59:08;;;;;;;2.40;1.33;;;4.40;99.90;;;;;;5004194;28;20369;-76
2022/03/31 09:01:34;;;;;;;2.33;2.13;;;4.40;99.90;;;;;;5003417;28;20049;-75
2022/03/31 09:04:00;;;;;;;2.67;2.47;;;4.30;99.90;;;;;;5004020;28;20392;-75
2022/03/31 09:06:30;;;;;;;5.70;3.07;;;4.30;99.90;;;;;;5003773;28;20053;-76
2022/03/31 09:08:57;;;;;;;2.47;2.27;;;4.30;99.90;;;;;;5003694;28;20054;-76
2022/03/31 09:11:34;;;;;;;1.97;1.87;;;4.40;99.90;;;;;;5003802;28;20045;-75
2022/03/31 09:14:02;;;;;;;2.10;2.00;;;4.40;99.90;;;;;;5004348;28;20396;-76
2022/03/31 09:16:36;;;;;;;1.70;1.60;;;4.30;99.90;;;;;;5002017;28;20074;-76
2022/03/31 09:19:04;;;;;;;2.10;2.00;;;4.30;99.90;;;;;;5002669;28;20041;-76
2022/03/31 09:21:31;;;;;;;1.40;1.40;;;4.30;99.90;;;;;;5003350;28;20072;-76
2022/03/31 09:23:57;;;;;;;1.60;1.50;;;4.30;99.90;;;;;;5004116;28;20048;-75
2022/03/31 09:26:27;;;;;;;1.73;1.63;;;4.40;99.90;;;;;;5004350;28;20176;-72
2022/03/31 09:28:55;;;;;;;1.37;1.27;;;4.30;99.90;;;;;;5003125;28;20088;-83
2022/03/31 09:31:26;;;;;;;2.33;2.17;;;4.30;99.90;;;;;;5004009;28;20146;-80
2022/03/31 09:33:57;;;;;;;3.13;1.90;;;4.30;99.90;;;;;;5003929;28;20500;-77
2022/03/31 09:36:23;;;;;;;1.60;1.50;;;4.20;99.90;;;;;;5004627;28;20397;-76
2022/03/31 09:38:59;;;;;;;1.90;1.70;;;4.20;99.90;;;;;;5003619;28;20492;-76
2022/03/31 09:41:33;;;;;;;1.27;1.23;;;4.20;99.90;;;;;;5004561;28;20038;-76
2022/03/31 09:44:01;;;;;;;1.93;1.47;;;4.20;99.90;;;;;;5004175;28;20284;-76
2022/03/31 09:46:35;;;;;;;2.23;2.13;;;4.10;99.90;;;;;;5004085;28;20133;-76
2022/03/31 09:49:22;;;;;;;5.10;1.77;;;4.10;99.90;;;;;;5003783;28;20279;-76
2022/03/31 09:51:59;;;;;;;3.30;1.87;;;4.00;99.90;;;;;;5004339;28;20044;-79
2022/03/31 09:54:27;;;;;;;2.23;2.13;;;4.10;99.90;;;;;;5000896;28;20046;-76
2022/03/31 09:56:56;;;;;;;3.90;1.17;;;4.00;99.90;;;;;;5004637;28;20046;-76
2022/03/31 09:59:28;;;;;;;1.53;1.43;;;4.00;99.90;;;;;;5002942;28;20120;-76
2022/03/31 10:01:53;;;;;;;;;;;4.10;99.90;;;;;;5004644;28;20038;-75
2022/03/31 10:04:20;;;;;;;1.27;1.27;;;4.00;99.90;;;;;;5003676;28;20380;-76
2022/03/31 10:06:46;;;;;;;2.47;2.23;;;4.00;99.90;;;;;;5004417;28;20081;-76
2022/03/31 10:09:12;;;;;;;0.90;0.90;;;4.00;99.90;;;;;;5002508;28;20077;-76
2022/03/31 10:11:43;;;;;;;1.60;0.60;;;4.00;99.90;;;;;;5004599;28;20038;-76
2022/03/31 10:14:19;;;;;;;1.47;1.37;;;4.00;99.90;;;;;;5003574;28;20123;-76
2022/03/31 10:16:51;;;;;;;1.33;1.23;;;4.00;99.90;;;;;;5004293;28;20045;-76
2022/03/31 10:19:40;;;;;;;1.30;1.03;;;4.00;99.90;;;;;;5003888;28;20038;-76
2022/03/31 10:24:41;;;;;;;0.47;0.47;;;4.00;99.90;;;;;;5003396;28;20439;-76
2022/03/31 10:24:59;;;;;;;1.57;1.30;;;4.00;99.90;;;;;;5002867;28;20046;-76
2022/03/31 10:27:30;;;;;;;1.13;1.13;;;3.90;99.90;;;;;;5003242;28;20080;-76
2022/03/31 10:30:26;;;;;;;1.70;1.07;;;3.90;99.90;;;;;;5002678;28;20129;-76
2022/03/31 10:32:56;;;;;;;1.03;0.93;;;3.90;99.90;;;;;;5001783;28;20491;-76
2022/03/31 10:35:27;;;;;;;1.57;1.47;;;3.90;99.90;;;;;;5003630;28;20042;-76
2022/03/31 10:37:54;;;;;;;0.87;0.87;;;3.80;99.90;;;;;;5002423;28;20054;-76
2022/03/31 10:40:34;;;;;;;1.00;1.00;;;3.80;99.90;;;;;;5001957;28;20117;-76
2022/03/31 10:43:01;;;;;;;1.47;1.33;;;3.80;99.90;;;;;;5001055;28;20042;-76
2022/03/31 10:45:36;;;;;;;1.37;0.93;;;3.70;99.90;;;;;;5001311;28;20057;-76
2022/03/31 10:48:16;;;;;;;1.60;1.03;;;3.70;99.90;;;;;;5002875;28;20045;-76
2022/03/31 10:50:42;;;;;;;1.53;1.43;;;3.70;99.90;;;;;;5000662;28;20054;-76
2022/03/31 10:53:07;;;;;;;2.13;1.93;;;3.70;99.90;;;;;;5000795;28;20042;-76
2022/03/31 10:55:37;;;;;;;1.53;1.43;;;3.80;99.90;;;;;;5000608;28;20492;-76
2022/03/31 10:58:05;;;;;;;2.03;1.80;;;3.80;99.90;;;;;;4998176;28;20060;-76
2022/03/31 11:00:30;;;;;;;2.40;1.70;;;3.90;99.90;;;;;;4999588;28;20038;-76
2022/03/31 11:02:56;;;;;;;1.27;1.27;;;3.80;99.90;;;;;;5002971;28;20046;-76
2022/03/31 11:05:22;;;;;;;1.93;1.73;;;3.80;99.90;;;;;;5000934;28;20042;-76
2022/03/31 11:07:48;;;;;;;1.07;1.07;;;3.80;99.90;;;;;;5001895;28;20046;-76
2022/03/31 11:10:17;;;;;;;0.73;0.73;;;3.80;99.90;;;;;;5002548;28;20057;-76
2022/03/31 11:12:43;;;;;;;2.23;2.03;;;3.80;99.90;;;;;;5001288;28;20038;-76
2022/03/31 11:15:12;;;;;;;0.80;0.80;;;3.80;99.90;;;;;;4997512;28;20052;-76
2022/03/31 11:17:39;;;;;;;1.07;0.83;;;3.80;99.90;;;;;;4983460;28;20116;-76
2022/03/31 11:20:24;;;;;;;4.00;1.07;;;3.80;99.90;;;;;;5000521;28;20064;-76
2022/03/31 11:22:54;;;;;;;0.83;0.83;;;3.80;99.90;;;;;;4997802;28;20266;-76
2022/03/31 11:25:22;;;;;;;1.90;1.40;;;3.80;99.90;;;;;;4997300;28;20045;-76
2022/03/31 11:27:49;;;;;;;0.43;0.43;;;3.80;99.90;;;;;;5000656;28;20045;-77
2022/03/31 11:30:18;;;;;;;0.87;0.87;;;3.80;99.90;;;;;;4998765;28;20050;-77
2022/03/31 11:32:45;;;;;;;1.33;1.33;;;3.80;99.90;;;;;;5001755;28;20439;-77
2022/03/31 11:35:17;;;;;;;0.77;0.77;;;3.80;99.90;;;;;;5001752;28;20045;-78
2022/03/31 11:38:05;;;;;;;1.90;1.13;;;3.70;99.90;;;;;;5000529;28;20414;-77
2022/03/31 11:40:37;;;;;;;1.40;1.17;;;3.70;99.90;;;;;;5000581;28;20077;-76
2022/03/31 11:43:09;;;;;;;0.83;0.80;;;3.70;99.90;;;;;;5001115;28;20515;-76
2022/03/31 11:45:46;;;;;;;0.97;0.90;;;3.60;99.90;;;;;;5000533;28;20049;-77
2022/03/31 11:48:20;;;;;;;1.37;1.17;;;3.60;99.90;;;;;;5001597;28;20281;-77
2022/03/31 11:50:59;;;;;;;1.40;1.10;;;3.60;99.90;;;;;;4999591;28;20045;-77
2022/03/31 11:53:30;;;;;;;1.03;1.03;;;3.60;99.90;;;;;;4996710;28;20128;-77
2022/03/31 11:56:12;;;;;;;1.67;1.57;;;3.50;99.90;;;;;;4999710;28;20042;-77
2022/03/31 11:58:49;;;;;;;1.33;1.23;;;3.50;99.90;;;;;;5000011;28;20025;-78
2022/03/31 12:01:16;;;;;;;1.07;1.07;;;3.50;99.90;;;;;;5006701;28;20077;-77
2022/03/31 12:03:42;;;;;;;0.57;0.57;;;3.60;99.90;;;;;;4992527;28;20038;-75
2022/03/31 12:06:08;;;;;;;1.00;1.00;;;3.50;99.90;;;;;;4991425;28;20404;-77
2022/03/31 12:08:34;;;;;;;1.43;1.27;;;3.50;99.90;;;;;;4991075;28;20109;-77
2022/03/31 12:11:01;;;;;;;1.27;1.27;;;3.40;99.90;;;;;;4987553;28;20038;-77
2022/03/31 12:13:28;;;;;;;1.63;1.00;;;3.40;99.90;;;;;;4986817;28;20101;-77
2022/03/31 12:16:08;;;;;;;1.77;1.00;;;3.40;99.90;;;;;;4981801;28;20054;-77
2022/03/31 12:18:35;;;;;;;0.77;0.77;;;3.30;99.90;;;;;;4997388;28;20053;-76
2022/03/31 12:21:06;;;;;;;1.00;0.90;;;3.30;99.90;;;;;;4981824;28;20046;-76
2022/03/31 12:23:39;;;;;;;2.67;1.63;;;3.30;99.90;;;;;;4980865;28;20034;-77
2022/03/31 12:26:13;;;;;;;1.77;1.67;;;3.30;99.90;;;;;;4981224;28;20112;-77
2022/03/31 12:28:43;;;;;;;1.17;1.17;;;3.30;99.90;;;;;;4989426;28;20049;-76
2022/03/31 12:31:20;;;;;;;1.30;0.80;;;3.30;99.90;;;;;;5001391;28;20152;-75
2022/03/31 12:33:48;;;;;;;0.60;0.53;;;3.20;99.90;;;;;;5001368;28;20071;-77
2022/03/31 12:36:14;;;;;;;2.27;1.97;;;3.20;99.90;;;;;;5001310;28;20046;-76
2022/03/31 12:38:39;;;;;;;2.93;1.90;;;3.20;99.90;;;;;;5000854;28;20061;-76
2022/03/31 12:41:21;;;;;;;1.13;1.03;;;3.10;99.90;;;;;;5001301;28;20042;-76
2022/03/31 12:44:06;;;;;;;2.07;1.07;;;3.00;99.90;;;;;;5000052;28;20036;-76
2022/03/31 12:46:37;;;;;;;1.10;1.10;;;3.00;99.90;;;;;;5001758;28;20057;-76
2022/03/31 12:49:08;;;;;;;3.10;2.53;;;2.90;99.90;;;;;;5001937;28;20042;-76
2022/03/31 12:51:50;;;;;;;1.00;1.00;;;2.80;99.90;;;;;;5000369;28;20050;-76
2022/03/31 12:54:20;;;;;;;1.63;0.93;;;2.90;99.90;;;;;;4999124;28;20046;-76
2022/03/31 12:56:48;;;;;;;1.13;1.03;;;2.70;99.90;;;;;;4999314;28;20052;-76
2022/03/31 12:59:18;;;;;;;0.93;0.93;;;2.70;99.90;;;;;;5001073;28;20120;-76
2022/03/31 13:01:57;;;;;;;2.93;1.20;;;2.70;99.90;;;;;;5001253;28;20042;-75
2022/03/31 13:04:22;;;;;;;1.43;1.07;;;2.70;99.90;;;;;;5000727;28;20042;-75
2022/03/31 13:06:48;;;;;;;1.30;1.20;;;2.60;99.90;;;;;;5000583;28;20041;-76
2022/03/31 13:09:13;;;;;;;0.67;0.67;;;2.60;99.90;;;;;;5004049;28;20045;-76